createdAt,value
2023-05-16T00:00:37.484Z,17.90
2023-05-16T00:03:05.747Z,17.89
2023-05-16T00:05:33.833Z,17.89
2023-05-16T00:08:00.649Z,17.88
2023-05-16T00:10:27.964Z,17.86
2023-05-16T00:12:57.060Z,17.85
2023-05-16T00:15:24.434Z,17.85
2023-05-16T00:17:52.222Z,17.86
2023-05-16T00:20:23.294Z,17.87
2023-05-16T00:22:50.755Z,17.87
2023-05-16T00:25:17.961Z,17.87
2023-05-16T00:27:44.962Z,17.87
2023-05-16T00:30:12.311Z,17.88
2023-05-16T00:32:39.334Z,17.88
2023-05-16T00:35:10.190Z,17.87
2023-05-16T00:37:38.089Z,17.87
2023-05-16T00:40:05.930Z,17.87
2023-05-16T00:42:33.180Z,17.89
2023-05-16T00:45:00.180Z,17.89
2023-05-16T00:47:28.625Z,17.89
2023-05-16T00:49:56.167Z,17.89
2023-05-16T00:52:24.239Z,17.87
2023-05-16T00:54:51.592Z,17.86
2023-05-16T00:57:19.051Z,17.83
2023-05-16T00:59:46.050Z,17.81
2023-05-16T01:02:13.875Z,17.79
2023-05-16T01:04:41.331Z,17.76
2023-05-16T01:07:08.408Z,17.74
2023-05-16T01:09:35.417Z,17.72
2023-05-16T01:12:25.914Z,17.70
2023-05-16T01:15:27.129Z,17.68
2023-05-16T01:18:17.479Z,17.66
2023-05-16T01:21:03.232Z,17.64
2023-05-16T01:24:24.743Z,17.63
2023-05-16T01:26:53.171Z,17.62
2023-05-16T01:29:20.028Z,17.61
2023-05-16T01:31:46.880Z,17.61
2023-05-16T01:34:13.602Z,17.62
2023-05-16T01:36:47.136Z,17.63
2023-05-16T01:39:34.873Z,17.65
2023-05-16T01:42:08.235Z,17.65
2023-05-16T01:44:35.996Z,17.63
2023-05-16T01:47:05.947Z,17.60
2023-05-16T01:49:38.627Z,17.57
2023-05-16T01:52:15.831Z,17.52
2023-05-16T01:54:46.008Z,17.48
2023-05-16T01:57:41.185Z,17.43
2023-05-16T02:00:08.742Z,17.37
2023-05-16T02:02:41.587Z,17.32
2023-05-16T02:05:09.301Z,17.28
2023-05-16T02:07:36.640Z,17.22
2023-05-16T02:10:04.453Z,17.18
2023-05-16T02:12:31.624Z,17.15
2023-05-16T02:14:58.736Z,17.12
2023-05-16T02:17:25.916Z,17.10
2023-05-16T02:19:52.903Z,17.07
2023-05-16T02:22:20.063Z,17.08
2023-05-16T02:24:47.015Z,17.09
2023-05-16T02:27:13.709Z,17.09
2023-05-16T02:29:40.384Z,17.09
2023-05-16T02:32:07.586Z,17.09
2023-05-16T02:34:34.397Z,17.10
2023-05-16T02:37:01.942Z,17.11
2023-05-16T02:39:29.564Z,17.13
2023-05-16T02:41:56.689Z,17.14
2023-05-16T02:44:23.353Z,17.16
2023-05-16T02:46:50.281Z,17.17
2023-05-16T02:49:17.177Z,17.18
2023-05-16T02:51:45.353Z,17.18
2023-05-16T02:54:12.403Z,17.19
2023-05-16T02:56:39.243Z,17.21
2023-05-16T02:59:06.015Z,17.25
2023-05-16T03:01:33.018Z,17.28
2023-05-16T03:04:00.103Z,17.31
2023-05-16T03:06:27.023Z,17.34
2023-05-16T03:08:53.778Z,17.37
2023-05-16T03:11:21.722Z,17.40
2023-05-16T03:13:48.682Z,17.45
2023-05-16T03:16:16.019Z,17.50
2023-05-16T03:19:14.536Z,17.54
2023-05-16T03:21:47.232Z,17.59
2023-05-16T03:24:14.305Z,17.63
2023-05-16T03:26:43.869Z,17.68
2023-05-16T03:29:11.609Z,17.71
2023-05-16T03:31:39.114Z,17.73
2023-05-16T03:34:06.357Z,17.74
2023-05-16T03:36:33.374Z,17.76
2023-05-16T03:39:18.679Z,17.78
2023-05-16T03:41:45.620Z,17.79
2023-05-16T03:44:12.330Z,17.80
2023-05-16T03:46:39.251Z,17.81
2023-05-16T03:49:05.951Z,17.82
2023-05-16T03:51:32.877Z,17.83
2023-05-16T03:53:59.803Z,17.85
2023-05-16T03:56:26.976Z,17.88
2023-05-16T03:58:53.922Z,17.91
2023-05-16T04:01:20.658Z,17.89
2023-05-16T04:03:47.501Z,17.89
2023-05-16T04:06:14.273Z,18.02
2023-05-16T04:08:44.359Z,18.14
2023-05-16T04:11:11.717Z,18.05
2023-05-16T04:13:40.878Z,17.94
2023-05-16T04:16:07.783Z,17.89
2023-05-16T04:18:34.658Z,17.89
2023-05-16T04:21:01.653Z,17.90
2023-05-16T04:23:28.508Z,17.92
2023-05-16T04:25:56.424Z,17.94
2023-05-16T04:28:23.158Z,17.95
2023-05-16T04:30:50.088Z,17.95
2023-05-16T04:33:18.102Z,17.95
2023-05-16T04:35:44.970Z,17.95
2023-05-16T04:38:12.220Z,17.96
2023-05-16T04:40:41.312Z,17.97
2023-05-16T04:43:08.377Z,17.98
2023-05-16T04:45:37.649Z,17.99
2023-05-16T04:48:04.954Z,18.00
2023-05-16T04:50:33.196Z,18.00
2023-05-16T04:52:59.902Z,18.02
2023-05-16T04:55:26.891Z,18.03
2023-05-16T04:57:53.941Z,18.06
2023-05-16T05:00:20.904Z,18.08
2023-05-16T05:02:50.100Z,18.10
2023-05-16T05:05:18.094Z,18.11
2023-05-16T05:07:46.009Z,18.10
2023-05-16T05:10:12.875Z,18.10
2023-05-16T05:12:40.321Z,18.11
2023-05-16T05:15:08.231Z,18.11
2023-05-16T05:17:35.249Z,18.13
2023-05-16T05:20:06.289Z,18.14
2023-05-16T05:22:33.265Z,18.16
2023-05-16T05:25:00.159Z,18.16
2023-05-16T05:27:27.169Z,18.16
2023-05-16T05:30:03.585Z,18.17
2023-05-16T05:32:32.515Z,18.19
2023-05-16T05:34:59.924Z,18.21
2023-05-16T05:37:27.281Z,18.23
2023-05-16T05:40:19.069Z,18.24
2023-05-16T05:43:02.366Z,18.24
2023-05-16T05:45:29.943Z,18.25
2023-05-16T05:47:57.095Z,18.24
2023-05-16T05:50:23.991Z,18.22
2023-05-16T05:52:50.934Z,18.22
2023-05-16T05:55:17.996Z,18.23
2023-05-16T05:57:44.931Z,18.24
2023-05-16T06:00:12.287Z,18.24
2023-05-16T06:02:39.928Z,18.23
2023-05-16T06:05:07.960Z,18.20
2023-05-16T06:07:34.870Z,18.17
2023-05-16T06:10:05.260Z,18.13
2023-05-16T06:12:32.858Z,18.10
2023-05-16T06:15:02.897Z,18.07
2023-05-16T06:17:39.281Z,18.05
2023-05-16T06:20:06.963Z,18.05
2023-05-16T06:22:34.559Z,18.05
2023-05-16T06:25:04.159Z,18.05
2023-05-16T06:27:37.780Z,18.02
2023-05-16T06:30:08.940Z,18.00
2023-05-16T06:32:36.734Z,17.99
2023-05-16T06:35:03.998Z,17.98
2023-05-16T06:37:34.484Z,17.96
2023-05-16T06:40:05.442Z,17.97
2023-05-16T06:43:13.840Z,17.97
2023-05-16T06:45:49.745Z,17.97
2023-05-16T06:48:22.396Z,17.97
2023-05-16T06:50:51.402Z,17.96
2023-05-16T06:53:18.241Z,18.00
2023-05-16T06:55:45.138Z,18.04
2023-05-16T06:58:14.690Z,18.07
2023-05-16T07:00:41.711Z,18.13
2023-05-16T07:03:08.756Z,18.21
2023-05-16T07:05:36.167Z,18.25
2023-05-16T07:08:04.583Z,18.29
2023-05-16T07:10:36.395Z,18.34
2023-05-16T07:13:04.519Z,18.39
2023-05-16T07:15:31.563Z,18.44
2023-05-16T07:17:58.468Z,18.49
2023-05-16T07:20:35.715Z,18.54
2023-05-16T07:23:02.606Z,18.57
2023-05-16T07:25:29.860Z,18.61
2023-05-16T07:27:57.054Z,18.65
2023-05-16T07:30:24.374Z,18.70
2023-05-16T07:32:51.434Z,18.76
2023-05-16T07:35:18.593Z,18.82
2023-05-16T07:37:45.657Z,18.88
2023-05-16T07:40:13.199Z,18.93
2023-05-16T07:42:40.375Z,18.99
2023-05-16T07:45:07.759Z,19.02
2023-05-16T07:47:35.457Z,19.04
2023-05-16T07:50:02.392Z,19.04
2023-05-16T07:52:29.574Z,19.03
2023-05-16T07:54:56.962Z,19.02
2023-05-16T07:57:32.990Z,19.01
2023-05-16T08:00:00.132Z,19.00
2023-05-16T08:02:30.138Z,18.98
2023-05-16T08:17:18.884Z,18.98
2023-05-16T08:19:46.247Z,19.27
2023-05-16T08:22:13.255Z,19.23
2023-05-16T08:24:40.811Z,19.17
2023-05-16T08:27:18.649Z,19.07
2023-05-16T08:29:45.912Z,18.95
2023-05-16T08:32:13.055Z,18.85
2023-05-16T08:34:40.277Z,18.78
2023-05-16T08:37:08.950Z,18.74
2023-05-16T08:39:35.941Z,18.74
2023-05-16T08:42:24.285Z,18.74
2023-05-16T08:45:00.406Z,18.75
2023-05-16T08:47:27.421Z,18.79
2023-05-16T08:49:54.549Z,18.87
2023-05-16T08:52:21.596Z,18.97
2023-05-16T08:55:01.965Z,19.06
2023-05-16T08:57:37.427Z,19.19
2023-05-16T09:00:11.274Z,19.31
2023-05-16T09:02:42.176Z,19.43
2023-05-16T09:05:11.145Z,19.56
2023-05-16T09:07:40.316Z,19.72
2023-05-16T09:10:10.907Z,19.83
2023-05-16T09:12:39.803Z,19.95
2023-05-16T09:15:07.778Z,20.07
2023-05-16T09:17:39.964Z,20.14
2023-05-16T09:20:15.581Z,20.17
2023-05-16T09:22:54.816Z,20.20
2023-05-16T09:25:30.272Z,20.24
2023-05-16T09:28:02.868Z,20.26
2023-05-16T09:30:32.031Z,20.28
2023-05-16T09:33:06.601Z,20.31
2023-05-16T09:38:03.265Z,20.37
2023-05-16T09:40:30.289Z,20.43
2023-05-16T09:43:09.775Z,20.48
2023-05-16T09:46:05.037Z,20.54
2023-05-16T09:48:32.957Z,20.59
2023-05-16T09:54:12.620Z,20.66
2023-05-16T09:57:04.801Z,20.66
2023-05-16T10:00:21.884Z,20.68
2023-05-16T10:03:14.761Z,20.75
2023-05-16T10:05:44.952Z,20.80
2023-05-16T10:08:23.674Z,20.80
2023-05-16T10:10:52.219Z,20.85
2023-05-16T10:14:10.275Z,20.90
2023-05-16T10:16:39.347Z,20.93
2023-05-16T10:19:09.727Z,20.94
2023-05-16T10:21:40.458Z,20.96
2023-05-16T10:24:07.512Z,20.97
2023-05-16T10:26:50.904Z,20.96
2023-05-16T10:29:17.958Z,20.92
2023-05-16T10:31:45.384Z,20.86
2023-05-16T10:34:12.450Z,20.79
2023-05-16T10:36:39.441Z,20.71
2023-05-16T10:39:06.689Z,20.61
2023-05-16T10:41:34.454Z,20.51
2023-05-16T10:44:02.261Z,20.42
2023-05-16T10:46:29.978Z,20.36
2023-05-16T10:48:58.591Z,20.34
2023-05-16T10:51:31.963Z,20.32
2023-05-16T10:54:04.867Z,20.30
2023-05-16T10:56:32.407Z,20.29
2023-05-16T10:58:59.150Z,20.27
2023-05-16T11:02:16.729Z,20.23
2023-05-16T11:04:49.058Z,20.18
2023-05-16T11:07:17.879Z,20.17
2023-05-16T11:09:45.202Z,20.17
2023-05-16T11:12:12.554Z,20.19
2023-05-16T11:14:42.096Z,20.22
2023-05-16T11:17:20.455Z,20.27
2023-05-16T11:19:48.852Z,20.32
2023-05-16T11:22:18.571Z,20.36
2023-05-16T11:24:55.746Z,20.40
2023-05-16T11:27:25.636Z,20.45
2023-05-16T11:29:53.451Z,20.50
2023-05-16T11:32:23.161Z,20.56
2023-05-16T11:34:51.419Z,20.61
2023-05-16T11:37:19.603Z,20.67
2023-05-16T11:39:46.816Z,20.74
2023-05-16T11:42:14.034Z,20.78
2023-05-16T11:44:40.866Z,20.83
2023-05-16T11:47:08.218Z,20.89
2023-05-16T11:49:35.712Z,20.95
2023-05-16T11:52:03.937Z,21.02
2023-05-16T11:54:31.875Z,21.06
2023-05-16T11:56:59.520Z,21.09
2023-05-16T11:59:26.503Z,21.13
2023-05-16T12:01:53.499Z,21.18
2023-05-16T12:04:20.697Z,21.23
2023-05-16T12:06:59.376Z,21.27
2023-05-16T12:09:26.121Z,21.33
2023-05-16T12:11:53.253Z,21.34
2023-05-16T12:14:20.801Z,21.35
2023-05-16T12:16:48.697Z,21.35
2023-05-16T12:19:15.748Z,21.37
2023-05-16T12:21:42.539Z,21.39
2023-05-16T12:24:12.365Z,21.39
2023-05-16T12:26:40.114Z,21.38
2023-05-16T12:29:11.124Z,21.36
2023-05-16T12:32:33.009Z,21.33
2023-05-16T12:35:04.098Z,21.29
2023-05-16T12:37:31.075Z,21.24
2023-05-16T12:40:05.712Z,21.19
2023-05-16T12:42:35.790Z,21.16
2023-05-16T12:45:02.779Z,21.13
2023-05-16T12:47:37.738Z,21.09
2023-05-16T12:50:11.004Z,21.06
2023-05-16T12:52:37.777Z,21.06
2023-05-16T12:55:05.447Z,21.06
2023-05-16T12:57:33.800Z,21.07
2023-05-16T13:00:01.622Z,21.05
2023-05-16T13:02:28.732Z,21.02
2023-05-16T13:04:55.753Z,20.99
2023-05-16T13:07:22.799Z,20.99
2023-05-16T13:09:49.747Z,20.99
2023-05-16T13:12:16.585Z,21.02
2023-05-16T13:14:44.656Z,21.03
2023-05-16T13:17:11.563Z,21.03
2023-05-16T13:19:55.505Z,21.04
2023-05-16T13:22:22.659Z,21.10
2023-05-16T13:24:49.549Z,21.20
2023-05-16T13:27:17.299Z,21.32
2023-05-16T13:29:44.233Z,21.45
2023-05-16T13:32:11.902Z,21.66
2023-05-16T13:34:38.980Z,21.83
2023-05-16T13:37:06.262Z,21.94
2023-05-16T13:39:33.245Z,22.03
2023-05-16T13:42:00.069Z,22.13
2023-05-16T13:44:27.186Z,22.20
2023-05-16T13:46:54.005Z,22.18
2023-05-16T13:49:21.827Z,22.20
2023-05-16T13:51:48.917Z,22.24
2023-05-16T13:54:17.182Z,22.27
2023-05-16T13:56:44.849Z,22.26
2023-05-16T13:59:15.400Z,22.25
2023-05-16T14:01:47.809Z,22.22
2023-05-16T14:04:15.174Z,22.24
2023-05-16T14:06:42.050Z,22.24
2023-05-16T14:09:09.124Z,22.23
2023-05-16T14:11:36.045Z,22.20
2023-05-16T14:14:02.847Z,22.15
2023-05-16T14:16:30.618Z,22.07
2023-05-16T14:20:01.230Z,21.99
2023-05-16T14:22:34.494Z,21.88
2023-05-16T14:25:01.340Z,21.77
2023-05-16T14:27:28.480Z,21.67
2023-05-16T14:29:55.809Z,21.60
2023-05-16T14:32:23.039Z,21.53
2023-05-16T14:34:50.339Z,21.47
2023-05-16T14:37:18.170Z,21.42
2023-05-16T14:40:14.040Z,21.40
2023-05-16T14:42:40.982Z,21.36
2023-05-16T14:45:08.141Z,21.31
2023-05-16T14:47:35.965Z,21.27
2023-05-16T14:50:02.944Z,21.25
2023-05-16T14:52:30.267Z,21.24
2023-05-16T14:54:57.186Z,21.22
2023-05-16T14:57:24.203Z,21.21
2023-05-16T14:59:51.770Z,21.21
2023-05-16T15:04:54.900Z,21.14
2023-05-16T15:19:02.166Z,21.44
2023-05-16T15:21:29.314Z,21.77
2023-05-16T15:23:56.501Z,21.80
2023-05-16T15:26:23.423Z,21.78
2023-05-16T15:28:52.842Z,21.75
2023-05-16T15:31:19.835Z,21.71
2023-05-16T15:33:48.410Z,21.71
2023-05-16T15:36:15.678Z,21.69
2023-05-16T15:38:45.684Z,21.67
2023-05-16T15:41:27.205Z,21.66
2023-05-16T15:44:01.025Z,21.67
2023-05-16T15:46:28.006Z,21.68
2023-05-16T15:48:54.862Z,21.70
2023-05-16T15:51:21.783Z,21.72
2023-05-16T15:53:48.914Z,21.73
2023-05-16T15:56:16.251Z,21.76
2023-05-16T15:58:46.677Z,21.78
2023-05-16T16:01:13.731Z,21.79
2023-05-16T16:03:41.160Z,21.77
2023-05-16T16:06:08.427Z,21.74
2023-05-16T16:08:36.162Z,21.71
2023-05-16T16:11:03.676Z,21.66
2023-05-16T16:13:31.390Z,21.61
2023-05-16T16:15:58.601Z,21.57
2023-05-16T16:18:25.501Z,21.53
2023-05-16T16:20:53.254Z,21.50
2023-05-16T16:23:20.497Z,21.48
2023-05-16T16:25:47.407Z,21.46
2023-05-16T16:28:14.263Z,21.43
2023-05-16T16:30:41.599Z,21.40
2023-05-16T16:33:08.694Z,21.38
2023-05-16T16:35:35.873Z,21.36
2023-05-16T16:38:07.238Z,21.32
2023-05-16T16:40:35.784Z,21.30
2023-05-16T16:43:06.054Z,21.28
2023-05-16T16:45:33.270Z,21.26
2023-05-16T16:48:00.229Z,21.24
2023-05-16T16:50:27.318Z,21.23
2023-05-16T16:52:54.983Z,21.21
2023-05-16T16:55:22.233Z,21.18
2023-05-16T16:57:49.260Z,21.18
2023-05-16T17:00:16.558Z,21.14
2023-05-16T17:02:43.707Z,21.10
2023-05-16T17:05:10.962Z,21.06
2023-05-16T17:07:37.984Z,21.03
2023-05-16T17:10:05.902Z,21.00
2023-05-16T17:12:34.844Z,20.96
2023-05-16T17:15:02.319Z,20.93
2023-05-16T17:17:29.560Z,20.91
2023-05-16T17:19:56.946Z,20.90
2023-05-16T17:22:23.996Z,20.87
2023-05-16T17:24:51.272Z,20.85
2023-05-16T17:27:18.435Z,20.83
2023-05-16T17:29:45.412Z,20.80
2023-05-16T17:32:14.404Z,20.76
2023-05-16T17:34:41.608Z,20.71
2023-05-16T17:37:10.679Z,20.67
2023-05-16T17:39:37.566Z,20.63
2023-05-16T17:42:05.897Z,20.59
2023-05-16T17:44:32.824Z,20.53
2023-05-16T17:46:59.909Z,20.47
2023-05-16T17:49:27.191Z,20.40
2023-05-16T17:51:55.014Z,20.36
2023-05-16T17:54:22.406Z,20.31
2023-05-16T17:56:50.576Z,20.27
2023-05-16T17:59:17.656Z,20.22
2023-05-16T18:01:44.587Z,20.18
2023-05-16T18:04:11.946Z,20.15
2023-05-16T18:06:39.056Z,20.11
2023-05-16T18:09:07.415Z,20.06
2023-05-16T18:11:34.537Z,20.00
2023-05-16T18:14:02.143Z,19.94
2023-05-16T18:16:30.529Z,19.87
2023-05-16T18:19:00.843Z,19.83
2023-05-16T18:21:27.771Z,19.79
2023-05-16T18:23:55.600Z,19.76
2023-05-16T18:26:24.578Z,19.72
2023-05-16T18:28:51.563Z,19.67
2023-05-16T18:31:18.688Z,19.61
2023-05-16T18:33:45.714Z,19.55
2023-05-16T18:36:12.586Z,19.50
2023-05-16T18:38:39.493Z,19.44
2023-05-16T18:41:06.490Z,19.38
2023-05-16T18:43:36.792Z,19.33
2023-05-16T18:46:04.393Z,19.27
2023-05-16T18:48:32.439Z,19.22
2023-05-16T18:51:01.458Z,19.19
2023-05-16T18:53:28.358Z,19.15
2023-05-16T18:55:56.150Z,19.10
2023-05-16T18:58:23.150Z,19.07
2023-05-16T19:00:50.490Z,19.04
2023-05-16T19:03:17.705Z,19.01
2023-05-16T19:05:45.254Z,18.97
2023-05-16T19:08:12.167Z,18.94
2023-05-16T19:10:42.164Z,18.90
2023-05-16T19:13:09.169Z,18.87
2023-05-16T19:15:36.300Z,18.84
2023-05-16T19:18:05.635Z,18.80
2023-05-16T19:20:35.945Z,18.77
2023-05-16T19:23:03.635Z,18.72
2023-05-16T19:25:30.891Z,18.69
2023-05-16T19:27:58.412Z,18.68
2023-05-16T19:30:25.544Z,18.66
2023-05-16T19:32:54.784Z,18.64
2023-05-16T19:35:22.117Z,18.63
2023-05-16T19:37:49.073Z,18.61
2023-05-16T19:40:17.453Z,18.58
2023-05-16T19:42:44.552Z,18.56
2023-05-16T19:45:11.955Z,18.54
2023-05-16T19:47:39.076Z,18.51
2023-05-16T19:50:07.131Z,18.49
2023-05-16T19:52:34.215Z,18.47
2023-05-16T19:55:01.235Z,18.45
2023-05-16T19:57:28.488Z,18.44
2023-05-16T19:59:55.569Z,18.41
2023-05-16T20:02:24.481Z,18.38
2023-05-16T20:04:51.916Z,18.36
2023-05-16T20:07:19.076Z,18.34
2023-05-16T20:09:46.125Z,18.31
2023-05-16T20:12:13.576Z,18.29
2023-05-16T20:14:40.667Z,18.27
2023-05-16T20:17:07.682Z,18.24
2023-05-16T20:19:36.606Z,18.21
2023-05-16T20:22:03.782Z,18.18
2023-05-16T20:24:30.689Z,18.15
2023-05-16T20:26:57.613Z,18.13
2023-05-16T20:29:24.472Z,18.12
2023-05-16T20:31:51.484Z,18.09
2023-05-16T20:34:18.413Z,18.07
2023-05-16T20:36:45.372Z,18.05
2023-05-16T20:39:12.432Z,18.01
2023-05-16T20:41:39.269Z,17.99
2023-05-16T20:44:06.923Z,17.96
2023-05-16T20:46:33.880Z,17.94
2023-05-16T20:49:00.931Z,17.91
2023-05-16T20:51:28.004Z,17.87
2023-05-16T20:53:54.986Z,17.86
2023-05-16T20:56:22.468Z,17.83
2023-05-16T20:58:49.397Z,17.80
2023-05-16T21:01:16.305Z,17.79
2023-05-16T21:03:43.192Z,17.77
2023-05-16T21:06:10.073Z,17.74
2023-05-16T21:08:37.340Z,17.72
2023-05-16T21:11:04.156Z,17.68
2023-05-16T21:13:31.351Z,17.67
2023-05-16T21:15:58.405Z,17.69
2023-05-16T21:18:25.370Z,17.72
2023-05-16T21:20:52.274Z,17.73
2023-05-16T21:23:19.523Z,17.72
2023-05-16T21:25:46.465Z,17.70
2023-05-16T21:28:13.293Z,17.69
2023-05-16T21:30:40.258Z,17.67
2023-05-16T21:33:07.349Z,17.66
2023-05-16T21:35:34.327Z,17.63
2023-05-16T21:38:01.445Z,17.60
2023-05-16T21:40:29.029Z,17.56
2023-05-16T21:42:55.929Z,17.51
2023-05-16T21:45:22.957Z,17.47
2023-05-16T21:47:49.947Z,17.43
2023-05-16T21:50:18.348Z,17.40
2023-05-16T21:52:45.336Z,17.36
2023-05-16T21:55:12.435Z,17.31
2023-05-16T21:57:39.681Z,17.27
2023-05-16T22:00:09.535Z,17.23
2023-05-16T22:02:36.670Z,17.18
2023-05-16T22:05:04.015Z,17.15
2023-05-16T22:07:31.839Z,17.12
2023-05-16T22:09:59.072Z,17.09
2023-05-16T22:12:26.873Z,17.08
2023-05-16T22:14:53.855Z,17.12
2023-05-16T22:17:20.841Z,17.19
2023-05-16T22:19:47.874Z,17.21
2023-05-16T22:22:15.061Z,17.20
2023-05-16T22:24:42.170Z,17.17
2023-05-16T22:27:09.005Z,17.15
2023-05-16T22:29:38.377Z,17.15
2023-05-16T22:32:09.385Z,17.14
2023-05-16T22:34:39.627Z,17.10
2023-05-16T22:37:10.111Z,17.05
2023-05-16T22:39:37.009Z,17.02
2023-05-16T22:42:04.343Z,17.00
2023-05-16T22:44:31.295Z,16.99
2023-05-16T22:46:58.208Z,16.99
2023-05-16T22:49:25.104Z,17.03
2023-05-16T22:51:51.995Z,17.09
2023-05-16T22:54:18.868Z,17.12
2023-05-16T22:56:45.884Z,17.12
2023-05-16T22:59:12.735Z,17.11
2023-05-16T23:01:39.616Z,17.10
2023-05-16T23:04:06.589Z,17.08
2023-05-16T23:06:33.724Z,17.05
2023-05-16T23:09:02.956Z,17.06
2023-05-16T23:11:33.971Z,17.08
2023-05-16T23:14:01.448Z,17.09
2023-05-16T23:16:28.338Z,17.13
2023-05-16T23:18:55.461Z,17.20
2023-05-16T23:21:22.332Z,17.24
2023-05-16T23:23:49.170Z,17.26
2023-05-16T23:26:16.115Z,17.29
2023-05-16T23:28:43.504Z,17.31
2023-05-16T23:31:10.370Z,17.32
2023-05-16T23:33:37.243Z,17.32
2023-05-16T23:36:04.464Z,17.31
2023-05-16T23:38:31.359Z,17.30
2023-05-16T23:40:58.361Z,17.30
2023-05-16T23:43:25.205Z,17.32
2023-05-16T23:45:52.144Z,17.38
2023-05-16T23:48:19.133Z,17.44
2023-05-16T23:50:45.994Z,17.50
2023-05-16T23:53:12.905Z,17.54
2023-05-16T23:55:39.776Z,17.56
2023-05-16T23:58:06.780Z,17.58
